Time;durP1;ratioP1;P1;durP2;ratioP2;P2;SDS_P1;SDS_P2;PMS_P1;PMS_P2;Temp;Humidity;BMP_temperature;BMP_pressure;BME280_temperature;BME280_humidity;BME280_pressure;Samples;Min_cycle;Max_cycle;Signal;HPM_P1;HPM_P2
2021/12/16 00:36:35;;;;;;;23.20;10.30;;;;;;;6.87;94.45;102492.10;104927;1311;58999;-83
2021/12/16 00:41:33;;;;;;;20.50;9.60;;;;;;;6.94;94.21;102485.98;104392;1313;65506;-82
2021/12/16 00:44:12;;;;;;;19.40;9.10;;;;;;;6.97;94.56;102480.34;104551;1313;76630;-83
2021/12/16 00:49:20;;;;;;;21.50;11.30;;;;;;;6.99;94.52;102480.73;104279;1313;59508;-83
2021/12/16 01:08:35;;;;;;;23.70;10.80;;;;;;;6.84;94.66;102483.39;105136;1309;132706;-81
2021/12/16 01:35:47;;;;;;;22.10;9.80;;;;;;;6.37;95.16;102485.02;104602;1324;71588;-82
2021/12/16 01:41:29;;;;;;;23.90;11.10;;;;;;;6.27;95.33;102493.55;104413;1322;63463;-83
2021/12/16 01:59:18;;;;;;;20.10;10.30;;;;;;;6.25;95.50;102502.50;104244;1327;73811;-79
2021/12/16 02:01:46;;;;;;;25.40;11.20;;;;;;;6.25;95.65;102506.90;104073;1328;310910;-80
2021/12/16 02:32:10;;;;;;;27.70;12.00;;;;;;;6.10;96.65;102496.05;103343;1325;71590;-81
2021/12/16 02:42:49;;;;;;;;;;;;;;;;;;;;;
2021/12/16 02:50:25;;;;;;;25.80;12.70;;;;;;;6.36;97.23;102510.05;102994;1349;60759;-80
2021/12/16 02:52:52;;;;;;;26.00;11.20;;;;;;;6.40;97.06;102515.21;102029;1358;74343;-80
2021/12/16 02:55:21;;;;;;;26.80;11.90;;;;;;;6.41;97.08;102515.64;102931;1344;71405;-79
2021/12/16 02:58:00;;;;;;;22.90;11.20;;;;;;;6.46;96.87;102517.09;102429;1350;72967;-79
2021/12/16 03:00:29;;;;;;;26.40;12.40;;;;;;;6.48;96.80;102520.98;102934;1345;62427;-79
2021/12/16 03:02:56;;;;;;;20.70;9.80;;;;;;;6.50;96.58;102523.30;102902;1346;59821;-79
2021/12/16 03:05:23;;;;;;;29.30;11.70;;;;;;;6.50;96.37;102521.17;102988;1342;74689;-80
2021/12/16 03:07:51;;;;;;;24.80;12.40;;;;;;;6.51;96.60;102516.71;102930;1345;71434;-81
2021/12/16 03:13:00;;;;;;;27.90;10.60;;;;;;;6.53;96.59;102524.67;102936;1343;63137;-81
2021/12/16 03:15:50;;;;;;;;;;;;;;;6.57;96.37;102522.16;103009;1348;60473;-79
2021/12/16 03:20:57;;;;;;;23.20;10.20;;;;;;;6.62;96.28;102524.58;103016;1348;72623;-79
2021/12/16 03:37:22;;;;;;;20.30;9.30;;;;;;;6.74;95.73;102512.38;102941;1348;75189;-81
2021/12/16 03:39:52;;;;;;;20.90;9.70;;;;;;;6.79;95.50;102527.49;102436;1345;62305;-80
2021/12/16 03:42:27;;;;;;;25.80;9.90;;;;;;;6.81;95.58;102520.73;102960;1346;61353;-80
2021/12/16 03:44:58;;;;;;;;;;;;;;;6.83;95.42;102522.33;103012;1346;74230;-80
2021/12/16 03:50:25;;;;;;;17.50;8.50;;;;;;;6.85;95.33;102519.88;103079;1326;129941;-84
2021/12/16 04:05:35;;;;;;;20.60;9.70;;;;;;;6.85;95.10;102526.18;102928;1329;62129;-82
2021/12/16 04:08:02;;;;;;;20.50;10.90;;;;;;;6.85;95.19;102522.85;102777;1323;131010;-79
2021/12/16 04:10:36;;;;;;;21.20;10.00;;;;;;;6.84;95.11;102523.80;102403;1344;74385;-79
2021/12/16 04:13:05;;;;;;;18.10;9.20;;;;;;;6.82;95.23;102526.20;102241;1351;71857;-79
2021/12/16 04:15:32;;;;;;;17.70;8.10;;;;;;;6.82;95.25;102528.84;102861;1344;73064;-79
2021/12/16 04:17:59;;;;;;;21.80;9.30;;;;;;;6.81;95.45;102522.08;102923;1348;62302;-80
2021/12/16 04:20:27;;;;;;;20.40;9.70;;;;;;;6.83;95.64;102527.21;102869;1349;60460;-79
2021/12/16 04:22:54;;;;;;;17.90;9.00;;;;;;;6.84;95.50;102530.16;102907;1344;74242;-80
2021/12/16 04:25:32;;;;;;;22.80;10.60;;;;;;;6.85;95.60;102528.30;102726;1348;72577;-79
2021/12/16 04:28:03;;;;;;;17.60;9.10;;;;;;;6.89;95.78;102532.08;102869;1348;73130;-80
2021/12/16 04:30:33;;;;;;;23.50;9.70;;;;;;;6.92;95.92;102532.05;102886;1347;62333;-79
2021/12/16 04:33:00;;;;;;;18.80;9.50;;;;;;;6.93;95.86;102534.05;102564;1344;61656;-79
2021/12/16 04:45:49;;;;;;;25.00;11.40;;;;;;;7.20;99.26;102551.77;102906;1348;61612;-79
2021/12/16 04:48:16;;;;;;;31.10;14.20;;;;;;;7.29;99.84;102557.30;102905;1345;74516;-82
2021/12/16 04:50:43;;;;;;;25.90;11.20;;;;;;;7.38;100.00;102565.48;102918;1348;72876;-80
2021/12/16 04:53:11;;;;;;;28.60;14.50;;;;;;;7.44;100.00;102566.63;102921;1342;72989;-80
2021/12/16 04:55:38;;;;;;;35.40;17.50;;;;;;;7.48;100.00;102568.94;102914;1348;63400;-81
2021/12/16 04:58:05;;;;;;;34.20;14.20;;;;;;;7.51;100.00;102572.79;102951;1344;60423;-78
2021/12/16 05:00:31;;;;;;;36.60;16.50;;;;;;;7.53;100.00;102573.16;102961;1345;75403;-79
2021/12/16 05:02:58;;;;;;;32.90;12.50;;;;;;;7.54;100.00;102564.67;102771;1348;71663;-80
2021/12/16 05:05:25;;;;;;;36.10;17.10;;;;;;;7.55;100.00;102570.98;102793;1348;73116;-80
2021/12/16 05:07:52;;;;;;;36.90;16.00;;;;;;;7.56;100.00;102568.58;102929;1345;62295;-80
2021/12/16 05:10:19;;;;;;;38.70;17.30;;;;;;;7.58;100.00;102573.04;102894;1352;61065;-81
2021/12/16 05:12:50;;;;;;;38.50;17.40;;;;;;;7.58;100.00;102568.81;102831;1344;75313;-79
2021/12/16 05:15:22;;;;;;;34.60;15.30;;;;;;;7.58;100.00;102579.70;102813;1344;72473;-78
2021/12/16 05:17:52;;;;;;;35.30;16.30;;;;;;;7.58;100.00;102572.55;102948;1344;73855;-78
2021/12/16 05:20:25;;;;;;;22.40;11.10;;;;;;;7.58;100.00;102573.41;102106;1351;64505;-78
2021/12/16 05:36:15;;;;;;;;;;;;;;;7.53;100.00;102580.97;102946;1332;132397;-80
2021/12/16 05:38:42;;;;;;;33.80;15.80;;;;;;;7.52;100.00;102585.40;102856;1345;74210;-79
2021/12/16 06:02:48;;;;;;;37.10;15.70;;;;;;;7.55;100.00;102623.61;103712;1328;59083;-82
2021/12/16 06:05:17;;;;;;;36.60;16.60;;;;;;;7.56;100.00;102626.33;102557;1348;74130;-81
2021/12/16 06:07:49;;;;;;;45.50;18.50;;;;;;;7.56;100.00;102624.92;102988;1342;71553;-81
2021/12/16 06:12:54;;;;;;;38.10;16.50;;;;;;;7.58;100.00;102641.16;102984;1348;63368;-80
2021/12/16 06:15:42;;;;;;;37.00;15.70;;;;;;;7.58;100.00;102639.96;102295;1351;58338;-81
2021/12/16 06:26:32;;;;;;;46.60;17.20;;;;;;;7.57;100.00;102662.89;103008;1341;62306;-81
2021/12/16 06:29:00;;;;;;;41.60;18.20;;;;;;;7.56;100.00;102670.17;102998;1342;60382;-79
2021/12/16 06:31:27;;;;;;;46.90;18.70;;;;;;;7.56;100.00;102670.35;102866;1345;74542;-78
2021/12/16 06:33:54;;;;;;;35.60;16.40;;;;;;;7.57;100.00;102666.94;102958;1350;72007;-77
2021/12/16 06:39:06;;;;;;;41.10;18.10;;;;;;;7.55;100.00;102661.80;103753;1331;133781;-80
2021/12/16 06:41:47;;;;;;;;;;;;;;;;;;;;;
2021/12/16 06:44:22;;;;;;;44.80;17.40;;;;;;;7.54;100.00;102667.86;102818;1331;75299;-83
2021/12/16 06:46:44;;;;;;;46.30;20.00;;;;;;;7.54;100.00;102673.50;102417;1332;131653;-81
2021/12/16 06:49:18;;;;;;;42.40;17.10;;;;;;;7.55;100.00;102676.57;102964;1342;72921;-81
2021/12/16 06:52:01;;;;;;;39.40;18.40;;;;;;;7.56;100.00;102678.49;102805;1348;62382;-81
2021/12/16 06:54:35;;;;;;;46.30;18.00;;;;;;;7.56;100.00;102682.30;103026;1348;60480;-81
2021/12/16 07:08:32;;;;;;;31.80;13.60;;;;;;;7.62;100.00;102688.41;103634;1323;60004;-81
2021/12/16 07:16:29;;;;;;;39.00;19.00;;;;;;;7.67;100.00;102677.55;102563;1331;133722;-79
2021/12/16 07:18:58;;;;;;;44.00;19.00;;;;;;;7.68;100.00;102685.91;102986;1337;64008;-80
2021/12/16 07:21:25;;;;;;;41.40;18.60;;;;;;;7.68;100.00;102686.05;102951;1342;60619;-79
2021/12/16 07:23:51;;;;;;;44.70;20.00;;;;;;;7.70;100.00;102688.05;102986;1342;74285;-79
2021/12/16 07:26:18;;;;;;;42.80;18.50;;;;;;;7.71;100.00;102695.70;102953;1345;72545;-79
2021/12/16 07:28:45;;;;;;;36.10;16.80;;;;;;;7.73;100.00;102702.96;102942;1346;73303;-79
2021/12/16 07:31:12;;;;;;;43.80;19.00;;;;;;;7.73;100.00;102709.11;102997;1342;62414;-78
2021/12/16 07:33:38;;;;;;;42.00;17.00;;;;;;;7.74;100.00;102717.51;102999;1342;60321;-81
2021/12/16 07:36:05;;;;;;;39.20;16.10;;;;;;;7.76;100.00;102713.88;102949;1349;75316;-79
2021/12/16 07:38:32;;;;;;;41.50;17.50;;;;;;;7.77;100.00;102716.27;102411;1348;58284;-80
2021/12/16 07:40:59;;;;;;;38.70;18.10;;;;;;;7.79;100.00;102719.89;102920;1344;74024;-80
2021/12/16 07:46:14;;;;;;;37.10;16.60;;;;;;;7.80;100.00;102723.46;103117;1341;58264;-81
2021/12/16 07:48:41;;;;;;;40.70;18.00;;;;;;;7.81;100.00;102721.33;103086;1342;74244;-80
2021/12/16 07:51:08;;;;;;;44.20;17.50;;;;;;;7.82;100.00;102716.83;103053;1342;70677;-79
2021/12/16 07:53:46;;;;;;;44.60;16.80;;;;;;;7.84;100.00;102720.54;102993;1344;74159;-81
2021/12/16 07:56:16;;;;;;;39.80;17.90;;;;;;;7.87;100.00;102720.20;102875;1332;62221;-77
2021/12/16 07:58:43;;;;;;;38.10;17.90;;;;;;;7.90;100.00;102732.61;102908;1342;60624;-77
2021/12/16 08:01:10;;;;;;;40.70;17.00;;;;;;;7.93;100.00;102740.69;102959;1342;75163;-76
2021/12/16 08:03:38;;;;;;;43.00;18.40;;;;;;;7.95;100.00;102749.20;102372;1345;71759;-77
2021/12/16 08:06:12;;;;;;;43.00;19.50;;;;;;;7.98;100.00;102753.61;102737;1342;74026;-77
2021/12/16 08:08:39;;;;;;;40.80;16.60;;;;;;;7.99;100.00;102756.19;102905;1342;63531;-76
2021/12/16 08:11:07;;;;;;;40.30;17.90;;;;;;;8.00;100.00;102759.61;102284;1348;60624;-78
2021/12/16 08:13:34;;;;;;;33.40;17.00;;;;;;;8.01;100.00;102761.48;102981;1342;75181;-76
2021/12/16 08:16:03;;;;;;;44.00;19.90;;;;;;;8.01;100.00;102760.27;102964;1342;72584;-77
2021/12/16 08:18:31;;;;;;;40.30;16.70;;;;;;;8.01;100.00;102758.31;102972;1342;72733;-77
2021/12/16 08:20:58;;;;;;;41.10;17.50;;;;;;;8.01;100.00;102763.92;102933;1345;62304;-77
2021/12/16 08:23:28;;;;;;;49.60;18.60;;;;;;;8.02;100.00;102765.27;103027;1342;60776;-77
2021/12/16 08:25:55;;;;;;;47.40;19.40;;;;;;;8.01;100.00;102768.73;102885;1346;74456;-77
2021/12/16 08:28:27;;;;;;;40.40;20.30;;;;;;;8.01;100.00;102765.33;102144;1345;71468;-77
2021/12/16 08:30:57;;;;;;;45.10;20.50;;;;;;;8.03;100.00;102775.09;102993;1342;72980;-77
2021/12/16 08:33:24;;;;;;;37.20;17.30;;;;;;;8.03;100.00;102783.69;102894;1348;63547;-77
2021/12/16 08:35:54;;;;;;;45.10;18.20;;;;;;;8.04;100.00;102790.69;102292;1344;61371;-77
2021/12/16 08:38:26;;;;;;;32.90;14.40;;;;;;;8.04;100.00;102794.19;102576;1345;74260;-77
2021/12/16 08:40:59;;;;;;;43.70;18.60;;;;;;;8.05;100.00;102799.42;102988;1345;71518;-77
2021/12/16 08:43:26;;;;;;;37.40;15.60;;;;;;;8.06;100.00;102797.80;102922;1348;73035;-77
2021/12/16 08:45:54;;;;;;;49.40;19.60;;;;;;;8.06;100.00;102796.17;102956;1345;63324;-78
2021/12/16 08:48:45;;;;;;;41.40;18.00;;;;;;;8.06;100.00;102800.73;102945;1344;60741;-77
2021/12/16 08:51:16;;;;;;;45.80;19.20;;;;;;;8.06;100.00;102804.66;102953;1345;74181;-77
2021/12/16 08:53:43;;;;;;;42.10;19.70;;;;;;;8.07;100.00;102797.33;102916;1344;71458;-77
2021/12/16 08:56:12;;;;;;;43.60;18.80;;;;;;;8.09;100.00;102792.98;102947;1345;72559;-77
2021/12/16 08:58:43;;;;;;;26.30;12.60;;;;;;;8.10;100.00;102793.45;102426;1351;62822;-77
2021/12/16 09:01:14;;;;;;;49.70;20.60;;;;;;;8.08;100.00;102796.73;102956;1344;62187;-76
2021/12/16 09:03:52;;;;;;;;;;;;;;;;;;;;;
2021/12/16 09:06:38;;;;;;;48.50;19.80;;;;;;;8.08;100.00;102808.90;102942;1349;72693;-76
2021/12/16 09:09:07;;;;;;;42.00;18.50;;;;;;;8.10;100.00;102813.19;102900;1348;74270;-76
2021/12/16 09:11:43;;;;;;;32.10;17.00;;;;;;;8.09;100.00;102829.98;102823;1345;63412;-76
2021/12/16 09:14:10;;;;;;;35.60;16.90;;;;;;;8.10;100.00;102826.05;102856;1350;61905;-76
2021/12/16 09:16:37;;;;;;;39.60;17.60;;;;;;;8.10;100.00;102827.99;102033;1354;74253;-76
2021/12/16 09:19:07;;;;;;;39.00;16.90;;;;;;;8.10;100.00;102822.64;102947;1346;71591;-77
2021/12/16 09:21:36;;;;;;;40.30;18.10;;;;;;;8.13;100.00;102829.20;102931;1344;72727;-77
2021/12/16 09:24:07;;;;;;;42.00;17.20;;;;;;;8.15;100.00;102831.16;102549;1341;62402;-78
2021/12/16 09:26:44;;;;;;;46.30;18.70;;;;;;;8.15;100.00;102833.41;102192;1354;60463;-76
2021/12/16 09:29:12;;;;;;;43.40;19.50;;;;;;;8.16;100.00;102837.09;102794;1346;75267;-77
2021/12/16 09:31:39;;;;;;;49.30;20.30;;;;;;;8.17;100.00;102835.25;102882;1341;72562;-77
2021/12/16 09:34:08;;;;;;;36.90;16.50;;;;;;;8.18;100.00;102831.81;102938;1345;74614;-77
2021/12/16 09:36:43;;;;;;;33.60;14.60;;;;;;;8.19;100.00;102829.35;102706;1351;63415;-77
2021/12/16 09:39:13;;;;;;;36.30;15.90;;;;;;;8.17;100.00;102835.23;102197;1351;60931;-77
2021/12/16 09:41:42;;;;;;;44.00;18.10;;;;;;;8.14;100.00;102841.09;102809;1346;75281;-77
2021/12/16 09:44:12;;;;;;;49.10;18.80;;;;;;;8.12;100.00;102838.77;102964;1345;71545;-77
2021/12/16 09:46:40;;;;;;;33.60;16.30;;;;;;;8.11;100.00;102838.44;102027;1354;72109;-76
2021/12/16 09:49:07;;;;;;;34.90;16.10;;;;;;;8.10;100.00;102846.98;102963;1344;62274;-77
2021/12/16 09:51:36;;;;;;;45.50;19.10;;;;;;;8.09;100.00;102849.37;102904;1348;60632;-77
2021/12/16 09:54:07;;;;;;;46.80;19.20;;;;;;;8.09;100.00;102856.41;102947;1346;74387;-77
2021/12/16 09:56:36;;;;;;;31.90;16.80;;;;;;;8.08;100.00;102858.60;101997;1348;72865;-77
2021/12/16 09:59:07;;;;;;;36.00;16.30;;;;;;;8.07;100.00;102863.08;102048;1354;73699;-76
2021/12/16 10:01:36;;;;;;;41.80;18.80;;;;;;;8.05;100.00;102867.98;102518;1346;448382;-77
2021/12/16 10:04:13;;;;;;;40.50;17.40;;;;;;;8.04;100.00;102868.21;102941;1346;60431;-77
2021/12/16 10:06:44;;;;;;;40.10;18.30;;;;;;;8.07;100.00;102871.70;102808;1348;74068;-77
2021/12/16 10:09:11;;;;;;;38.80;18.80;;;;;;;8.10;100.00;102882.45;102845;1348;71548;-77
2021/12/16 10:11:52;;;;;;;33.70;14.90;;;;;;;8.13;100.00;102880.83;102722;1345;74125;-77
2021/12/16 10:19:42;;;;;;;39.50;15.30;;;;;;;8.27;100.00;102871.08;102909;1351;74143;-76
2021/12/16 10:22:28;;;;;;;39.60;17.50;;;;;;;8.30;100.00;102863.11;102989;1346;72715;-77
2021/12/16 10:24:57;;;;;;;25.90;12.40;;;;;;;8.33;100.00;102866.38;102818;1347;74296;-77
2021/12/16 10:27:27;;;;;;;32.20;14.30;;;;;;;8.33;100.00;102866.73;102907;1348;63521;-78
2021/12/16 10:29:56;;;;;;;34.70;16.80;;;;;;;8.33;100.00;102867.45;102640;1350;60706;-78
2021/12/16 10:32:31;;;;;;;36.70;16.20;;;;;;;8.35;100.00;102861.67;102566;1351;74221;-77
2021/12/16 10:35:00;;;;;;;31.60;16.60;;;;;;;8.35;100.00;102864.67;102827;1345;72435;-77
2021/12/16 10:37:32;;;;;;;28.70;12.70;;;;;;;8.33;100.00;102863.20;102872;1350;72978;-77
2021/12/16 10:40:36;;;;;;;35.60;16.40;;;;;;;8.33;100.00;102864.48;102891;1345;63556;-76
2021/12/16 10:43:26;;;;;;;34.70;16.00;;;;;;;8.34;100.00;102861.23;102900;1348;61767;-76
2021/12/16 10:45:58;;;;;;;40.00;15.40;;;;;;;8.35;100.00;102854.64;102813;1351;74391;-76
2021/12/16 10:48:37;;;;;;;31.90;14.40;;;;;;;8.34;100.00;102857.13;102953;1345;71473;-77
2021/12/16 10:51:18;;;;;;;26.70;13.90;;;;;;;8.34;100.00;102866.17;102903;1345;74241;-78
2021/12/16 10:53:58;;;;;;;26.30;12.80;;;;;;;8.34;100.00;102873.17;102911;1344;62443;-78
2021/12/16 10:56:38;;;;;;;30.90;14.70;;;;;;;8.38;100.00;102869.75;102980;1349;61785;-78
2021/12/16 10:59:37;;;;;;;27.20;13.20;;;;;;;8.43;100.00;102865.70;102672;1350;74156;-78
2021/12/16 11:02:21;;;;;;;33.60;15.50;;;;;;;8.51;100.00;102855.48;102929;1345;72562;-78
2021/12/16 11:05:02;;;;;;;34.30;13.40;;;;;;;8.55;100.00;102853.80;102933;1350;74231;-78
2021/12/16 11:07:31;;;;;;;29.00;14.10;;;;;;;8.56;100.00;102858.98;102374;1351;62328;-78
2021/12/16 11:10:27;;;;;;;28.00;12.10;;;;;;;8.57;100.00;102857.15;102931;1352;61746;-78
2021/12/16 11:13:09;;;;;;;31.70;14.50;;;;;;;8.59;100.00;102858.81;102876;1351;75450;-78
2021/12/16 11:15:52;;;;;;;27.10;14.20;;;;;;;8.61;100.00;102858.16;102849;1351;71535;-78
2021/12/16 11:18:26;;;;;;;23.50;11.30;;;;;;;8.63;100.00;102867.16;102794;1350;72948;-78
2021/12/16 11:21:00;;;;;;;25.60;12.80;;;;;;;8.66;100.00;102880.02;102905;1349;63458;-78
2021/12/16 11:23:34;;;;;;;18.80;9.80;;;;;;;8.67;100.00;102885.05;102944;1349;60765;-78
2021/12/16 11:26:10;;;;;;;25.40;11.80;;;;;;;8.69;100.00;102887.89;102808;1352;73694;-77
2021/12/16 11:28:48;;;;;;;22.50;10.40;;;;;;;8.69;100.00;102886.52;102937;1350;71931;-78
2021/12/16 11:31:19;;;;;;;26.60;12.80;;;;;;;8.71;100.00;102890.93;102939;1346;72678;-78
2021/12/16 11:33:48;;;;;;;24.20;12.10;;;;;;;8.72;100.00;102886.61;102587;1350;63413;-78
2021/12/16 11:36:31;;;;;;;21.80;11.80;;;;;;;8.75;100.00;102890.85;102964;1345;59434;-79
2021/12/16 11:39:04;;;;;;;22.70;11.60;;;;;;;8.76;100.00;102898.86;102972;1344;75300;-78
2021/12/16 11:41:48;;;;;;;23.70;11.70;;;;;;;8.77;100.00;102899.52;102862;1350;71958;-78
2021/12/16 11:44:23;;;;;;;27.40;13.10;;;;;;;8.78;100.00;102899.63;102929;1345;73065;-77
2021/12/16 11:46:55;;;;;;;25.10;11.50;;;;;;;8.78;100.00;102901.70;102910;1344;63242;-77
2021/12/16 11:49:48;;;;;;;23.10;11.00;;;;;;;8.79;100.00;102906.39;102822;1349;61934;-77
2021/12/16 11:52:31;;;;;;;22.50;11.30;;;;;;;8.78;100.00;102910.20;102944;1351;75324;-76
2021/12/16 11:55:14;;;;;;;23.80;10.90;;;;;;;8.78;100.00;102911.22;102938;1344;71662;-76
2021/12/16 11:57:47;;;;;;;22.90;9.50;;;;;;;8.77;100.00;102909.94;102933;1351;73280;-76
2021/12/16 12:00:15;;;;;;;18.50;9.90;;;;;;;8.76;100.00;102913.30;102874;1349;63338;-77
2021/12/16 12:02:49;;;;;;;18.50;9.00;;;;;;;8.77;100.00;102907.61;102926;1351;61799;-76
2021/12/16 12:05:57;;;;;;;21.40;10.00;;;;;;;8.77;100.00;102906.04;102910;1348;74012;-77
2021/12/16 12:08:32;;;;;;;18.30;10.80;;;;;;;8.77;100.00;102901.76;102974;1345;71560;-76
2021/12/16 12:11:01;;;;;;;19.50;9.60;;;;;;;8.76;100.00;102903.45;102925;1346;72937;-77
2021/12/16 12:13:44;;;;;;;19.20;7.50;;;;;;;8.76;100.00;102905.20;102936;1351;63255;-77
2021/12/16 12:16:14;;;;;;;18.90;9.00;;;;;;;8.75;100.00;102907.36;102796;1350;60642;-77
2021/12/16 12:19:28;;;;;;;17.90;8.60;;;;;;;8.75;100.00;102908.34;102918;1349;75310;-77
2021/12/16 12:22:04;;;;;;;21.70;9.50;;;;;;;8.74;100.00;102904.98;102942;1344;71594;-77
2021/12/16 12:24:37;;;;;;;23.90;10.70;;;;;;;8.75;100.00;102908.09;102952;1346;73085;-77
2021/12/16 12:27:15;;;;;;;15.90;7.90;;;;;;;8.76;100.00;102914.05;102469;1347;62764;-77
2021/12/16 12:29:48;;;;;;;17.40;8.40;;;;;;;8.75;99.92;102904.73;102923;1344;60369;-76
2021/12/16 12:32:22;;;;;;;22.30;10.70;;;;;;;8.75;99.98;102904.42;102472;1341;74345;-77
2021/12/16 12:35:00;;;;;;;24.90;10.70;;;;;;;8.75;99.98;102908.83;102913;1350;72574;-77
2021/12/16 12:37:29;;;;;;;15.60;7.40;;;;;;;8.76;99.98;102908.73;102925;1351;73057;-77
2021/12/16 12:40:01;;;;;;;21.10;9.80;;;;;;;8.77;99.86;102907.98;102798;1348;62250;-77
2021/12/16 12:42:29;;;;;;;15.30;7.00;;;;;;;8.76;99.98;102904.71;102926;1351;60638;-78
2021/12/16 12:44:59;;;;;;;17.60;9.10;;;;;;;8.75;99.86;102902.80;102211;1354;75370;-77
2021/12/16 12:47:33;;;;;;;18.70;7.90;;;;;;;8.76;99.91;102909.06;102927;1351;73565;-78
2021/12/16 12:50:10;;;;;;;19.00;8.30;;;;;;;8.78;99.93;102914.27;102886;1344;72978;-77
2021/12/16 12:52:38;;;;;;;18.00;8.60;;;;;;;8.77;99.70;102919.25;102370;1352;62341;-77
2021/12/16 12:55:16;;;;;;;16.60;6.80;;;;;;;8.77;99.51;102916.25;102775;1351;59758;-78
2021/12/16 12:57:45;;;;;;;14.20;6.80;;;;;;;8.76;99.32;102909.61;102728;1345;74002;-78
2021/12/16 13:00:29;;;;;;;16.50;8.10;;;;;;;8.76;99.10;102911.58;102882;1349;72678;-77
2021/12/16 13:03:02;;;;;;;20.30;8.40;;;;;;;8.74;99.36;102906.27;102938;1351;74026;-77
2021/12/16 13:05:31;;;;;;;19.00;10.10;;;;;;;8.73;99.45;102907.40;102945;1345;62375;-80
2021/12/16 13:08:02;;;;;;;18.00;7.70;;;;;;;8.72;99.44;102913.44;102864;1351;60736;-78
2021/12/16 13:10:46;;;;;;;61.60;19.10;;;;;;;8.72;99.50;102916.97;102972;1349;74303;-77
2021/12/16 13:16:38;;;;;;;21.10;10.10;;;;;;;8.72;99.93;102920.85;102998;1348;74239;-78
2021/12/16 13:27:40;;;;;;;19.70;9.50;;;;;;;8.76;99.22;102928.55;102962;1344;72492;-78
2021/12/16 13:32:46;;;;;;;17.20;8.60;;;;;;;8.82;99.26;102926.70;102842;1351;62555;-80
2021/12/16 13:37:56;;;;;;;13.10;6.40;;;;;;;8.87;99.16;102926.30;102867;1348;74237;-78
2021/12/16 13:40:28;;;;;;;18.00;8.40;;;;;;;8.90;99.12;102926.32;102865;1347;72585;-78
2021/12/16 13:43:02;;;;;;;13.00;6.50;;;;;;;8.90;98.53;102919.94;102481;1344;73122;-77
2021/12/16 13:45:39;;;;;;;20.50;9.20;;;;;;;8.90;98.39;102923.09;102342;1347;61728;-77
2021/12/16 14:06:51;;;;;;;9.00;4.60;;;;;;;8.75;96.41;102918.48;103019;1345;73790;-79
2021/12/16 14:09:24;;;;;;;12.10;5.50;;;;;;;8.74;95.98;102921.39;102518;1353;74278;-79
2021/12/16 14:17:50;;;;;;;14.70;6.80;;;;;;;8.76;97.15;102932.23;103007;1345;60857;-79
2021/12/16 14:23:22;;;;;;;16.00;7.40;;;;;;;8.76;97.05;102926.73;102883;1345;70555;-77
2021/12/16 14:36:57;;;;;;;13.30;7.00;;;;;;;8.76;96.99;102942.65;102973;1347;71782;-79
2021/12/16 14:45:17;;;;;;;16.10;6.80;;;;;;;8.73;97.18;102948.13;102932;1344;61741;-79
2021/12/16 14:49:52;;;;;;;19.30;7.40;;;;;;;8.73;97.53;102946.35;102861;1344;72486;-80
2021/12/16 14:52:29;;;;;;;14.20;6.90;;;;;;;8.73;97.20;102953.05;102945;1345;73539;-76
2021/12/16 14:54:59;;;;;;;16.60;6.80;;;;;;;8.73;97.47;102964.02;102905;1348;62432;-77
2021/12/16 14:57:31;;;;;;;13.80;6.90;;;;;;;8.71;96.82;102969.95;103031;1350;62124;-77
2021/12/16 14:59:58;;;;;;;12.50;6.80;;;;;;;8.71;96.69;102962.93;102920;1347;74336;-77
2021/12/16 15:02:30;;;;;;;13.10;6.10;;;;;;;8.69;96.29;102962.17;102972;1345;70105;-77
2021/12/16 15:05:22;;;;;;;21.30;6.10;;;;;;;8.68;95.96;102954.81;102950;1342;73406;-77
2021/12/16 15:07:52;;;;;;;11.60;6.60;;;;;;;8.65;95.46;102958.55;102838;1349;61313;-78
2021/12/16 15:10:22;;;;;;;8.50;4.20;;;;;;;8.66;95.28;102971.40;102899;1351;61614;-78
2021/12/16 15:13:06;;;;;;;13.60;6.10;;;;;;;8.64;95.10;102975.25;102982;1344;74308;-77
2021/12/16 15:15:46;;;;;;;14.80;6.20;;;;;;;8.64;95.42;102974.30;102560;1351;72517;-78
2021/12/16 15:33:45;;;;;;;15.50;7.30;;;;;;;8.63;96.48;102971.25;102983;1344;73150;-78
2021/12/16 15:38:19;;;;;;;21.40;9.70;;;;;;;8.58;96.58;102977.38;102987;1350;61713;-78
2021/12/16 15:42:46;;;;;;;21.30;9.10;;;;;;;8.59;96.91;102982.46;103009;1345;74403;-78
2021/12/16 15:43:52;;;;;;;20.00;8.60;;;;;;;8.60;96.87;102995.61;102918;1350;71497;-78
2021/12/16 15:46:26;;;;;;;25.80;8.60;;;;;;;8.61;96.90;103000.33;102974;1348;73861;-78
2021/12/16 15:48:54;;;;;;;25.50;9.40;;;;;;;8.62;96.64;103000.98;102950;1345;63342;-78
2021/12/16 15:51:23;;;;;;;20.70;10.00;;;;;;;8.62;96.81;103004.44;102922;1345;60685;-78
2021/12/16 15:53:55;;;;;;;20.10;9.30;;;;;;;8.63;96.92;103002.62;102984;1345;75176;-79
2021/12/16 15:56:29;;;;;;;22.10;11.00;;;;;;;8.63;96.82;103002.63;102938;1344;71271;-78
2021/12/16 15:59:12;;;;;;;21.30;10.20;;;;;;;8.63;96.98;103002.62;102923;1345;74525;-79
2021/12/16 16:01:47;;;;;;;16.80;8.10;;;;;;;8.63;97.23;103000.17;102972;1344;61822;-78
2021/12/16 16:04:18;;;;;;;19.40;10.50;;;;;;;8.61;96.91;103007.34;102997;1345;60721;-79
2021/12/16 16:06:48;;;;;;;17.60;10.10;;;;;;;8.61;97.29;103010.00;102897;1349;75495;-78
2021/12/16 16:09:18;;;;;;;19.20;9.70;;;;;;;8.62;97.04;103015.40;102842;1348;72537;-78
2021/12/16 16:11:51;;;;;;;19.40;8.80;;;;;;;8.60;97.11;103015.54;102935;1345;73061;-78
2021/12/16 16:14:20;;;;;;;13.60;8.10;;;;;;;8.58;96.39;103017.98;102939;1345;62056;-78
2021/12/16 16:16:53;;;;;;;12.60;7.10;;;;;;;8.52;94.71;103019.40;102924;1344;60702;-77
2021/12/16 16:19:28;;;;;;;14.70;6.80;;;;;;;8.49;94.08;103025.80;102855;1345;74392;-78
2021/12/16 16:21:56;;;;;;;13.30;6.40;;;;;;;8.46;94.25;103024.27;102993;1344;71564;-77
2021/12/16 16:24:39;;;;;;;9.90;6.20;;;;;;;8.44;94.14;103027.21;102374;1348;72322;-75
2021/12/16 16:27:12;;;;;;;10.10;5.80;;;;;;;8.41;94.00;103029.68;102334;1344;63440;-76
2021/12/16 16:29:42;;;;;;;12.70;6.10;;;;;;;8.39;93.91;103037.73;102875;1345;61884;-76
2021/12/16 16:32:09;;;;;;;12.60;6.10;;;;;;;8.39;93.97;103046.01;102979;1347;75713;-76
2021/12/16 16:34:44;;;;;;;11.80;6.60;;;;;;;8.38;93.91;103049.79;102894;1344;71466;-76
2021/12/16 16:37:12;;;;;;;12.90;6.30;;;;;;;8.36;93.79;103055.55;102926;1345;73350;-76
2021/12/16 16:39:42;;;;;;;9.70;4.80;;;;;;;8.34;93.84;103055.68;102900;1345;62206;-76
2021/12/16 16:42:13;;;;;;;10.00;5.50;;;;;;;8.32;93.76;103055.80;102950;1344;60707;-76
2021/12/16 16:44:45;;;;;;;9.40;4.50;;;;;;;8.31;93.43;103059.59;102912;1344;75643;-76
2021/12/16 16:47:24;;;;;;;13.90;6.10;;;;;;;8.31;93.07;103075.29;102941;1349;71592;-75
2021/12/16 16:49:53;;;;;;;12.10;4.80;;;;;;;8.31;93.25;103078.12;102912;1344;72995;-76
2021/12/16 16:52:35;;;;;;;8.00;4.50;;;;;;;8.30;92.46;103068.63;102943;1349;60390;-77
2021/12/16 16:55:13;;;;;;;10.00;4.10;;;;;;;8.29;92.32;103058.86;102883;1351;60686;-76
2021/12/16 16:57:45;;;;;;;10.10;4.60;;;;;;;8.28;92.08;103057.67;102924;1347;74115;-77
2021/12/16 17:00:26;;;;;;;11.30;4.00;;;;;;;8.29;92.23;103060.44;102932;1344;71274;-77
2021/12/16 17:03:02;;;;;;;7.30;4.50;;;;;;;8.30;92.23;103061.26;102949;1344;73462;-76
2021/12/16 17:05:38;;;;;;;10.80;4.80;;;;;;;8.30;92.28;103066.52;102939;1345;63289;-76
2021/12/16 17:08:11;;;;;;;15.30;5.70;;;;;;;8.30;92.24;103062.66;102944;1342;60752;-77
2021/12/16 17:10:50;;;;;;;6.60;3.80;;;;;;;8.30;92.52;103057.20;102942;1345;74173;-77
2021/12/16 17:13:37;;;;;;;11.40;5.00;;;;;;;8.30;92.65;103057.39;102817;1347;72526;-76
2021/12/16 17:18:45;;;;;;;15.30;6.10;;;;;;;8.31;92.66;103057.83;102930;1344;62307;-77
2021/12/16 17:21:24;;;;;;;13.30;6.70;;;;;;;8.31;92.59;103060.14;102341;1344;60655;-78